Aurora Center, South Dakota
Current Conditions -  °F | °C
As of 8:53 PM on Friday 31 Oct 2014 (Local Time) from KMHE Reporting Station
Clear Clear  
Wind Chill: 24°   Ceiling: Unl
Heat Index: 33°   Visibility: 10mi
Dew Point: 19°   Wind: 12mph
Humidity: 56%   Direction: 150°SSE
Pressure: 30.39"   Gusts: NA
Location:  43.5853°N, 98.5581°W
Report Text: KMHE 010153Z AUTO 15010KT 10SM CLR 01/M07 A3039 RMK AO2 SLP310 T00061072
Loading
Personal Weather Stations






























Interactive Weather Map
Tropical Storm Tracking
New forecast layout! Learn more

10-Day Weather Forecast

Advertisements
Track Severe Weather on mobile